createdAt,value
2023-01-24T00:02:47.503Z,101760.41
2023-01-24T00:05:50.217Z,101760.81
2023-01-24T00:08:52.225Z,101763.88
2023-01-24T00:11:54.147Z,101763.69
2023-01-24T00:14:56.283Z,101768.19
2023-01-24T00:17:58.539Z,101768.31
2023-01-24T00:21:04.830Z,101774.25
2023-01-24T00:24:06.848Z,101772.63
2023-01-24T00:27:10.970Z,101775.19
2023-01-24T00:30:12.961Z,101767.81
2023-01-24T00:33:14.965Z,101761.66
2023-01-24T00:36:17.300Z,101775.87
2023-01-24T00:39:19.269Z,101778.94
2023-01-24T00:42:21.351Z,101772.13
2023-01-24T00:45:23.930Z,101778.91
2023-01-24T00:48:26.084Z,101778.78
2023-01-24T00:51:28.225Z,101784.16
2023-01-24T00:54:30.331Z,101784.31
2023-01-24T00:57:32.319Z,101793.41
2023-01-24T01:00:35.586Z,101794.19
2023-01-24T01:03:37.552Z,101792.41
2023-01-24T01:06:39.500Z,101802.53
2023-01-24T01:09:41.450Z,101802.13
2023-01-24T01:12:43.366Z,101800.47
2023-01-24T01:15:45.370Z,101810.91
2023-01-24T01:18:47.925Z,101811.59
2023-01-24T01:21:50.898Z,101819.87
2023-01-24T01:24:52.884Z,101825.84
2023-01-24T01:27:54.871Z,101817.22
2023-01-24T01:30:56.891Z,101822.34
2023-01-24T01:33:59.041Z,101813.06
2023-01-24T01:37:01.067Z,101814.62
2023-01-24T01:40:03.435Z,101823.53
2023-01-24T01:43:06.384Z,101824.41
2023-01-24T01:46:21.374Z,101835.22
2023-01-24T01:49:24.858Z,101834.75
2023-01-24T01:52:27.271Z,101826.06
2023-01-24T01:55:31.989Z,101837.22
2023-01-24T01:58:34.273Z,101831.34
2023-01-24T02:01:36.432Z,101839.03
2023-01-24T02:04:40.181Z,101837.63
2023-01-24T02:07:45.788Z,101838.06
2023-01-24T02:11:06.262Z,101840.13
2023-01-24T02:14:28.091Z,101834.56
2023-01-24T02:17:30.419Z,101840.28
2023-01-24T02:20:34.004Z,101838.50
2023-01-24T02:23:53.081Z,101844.25
2023-01-24T02:26:55.102Z,101848.09
2023-01-24T02:29:57.133Z,101844.38
2023-01-24T02:32:59.179Z,101848.06
2023-01-24T02:36:13.009Z,101854.91
2023-01-24T02:39:16.121Z,101845.84
2023-01-24T02:42:25.753Z,101842.22
2023-01-24T02:45:28.600Z,101842.12
2023-01-24T02:48:30.449Z,101846.53
2023-01-24T02:51:51.056Z,101849.12
2023-01-24T02:54:52.935Z,101853.19
2023-01-24T02:58:07.582Z,101846.75
2023-01-24T03:01:09.603Z,101847.75
2023-01-24T03:04:12.896Z,101852.19
2023-01-24T03:07:14.761Z,101859.41
2023-01-24T03:10:17.420Z,101862.53
2023-01-24T03:13:38.232Z,101860.56
2023-01-24T03:16:59.041Z,101856.16
2023-01-24T03:20:19.340Z,101869.94
2023-01-24T03:23:39.695Z,101864.03
2023-01-24T03:27:00.264Z,101863.91
2023-01-24T03:30:21.086Z,101865.41
2023-01-24T03:33:41.717Z,101874.37
2023-01-24T03:36:43.595Z,101868.16
2023-01-24T03:40:01.083Z,101874.59
2023-01-24T03:43:03.292Z,101877.44
2023-01-24T03:46:05.382Z,101875.62
2023-01-24T03:49:07.680Z,101874.69
2023-01-24T03:52:31.086Z,101870.47
2023-01-24T03:55:33.049Z,101873.59
2023-01-24T03:58:35.086Z,101877.72
2023-01-24T04:01:37.148Z,101874.31
2023-01-24T04:04:57.837Z,101868.41
2023-01-24T04:07:59.748Z,101868.91
2023-01-24T04:11:01.707Z,101868.41
2023-01-24T04:14:03.692Z,101882.38
2023-01-24T04:17:05.705Z,101875.69
2023-01-24T04:20:08.214Z,101878.13
2023-01-24T04:23:11.132Z,101882.38
2023-01-24T04:26:13.422Z,101873.41
2023-01-24T04:29:15.379Z,101873.94
2023-01-24T04:32:17.351Z,101877.53
2023-01-24T04:35:20.881Z,101876.50
2023-01-24T04:38:23.091Z,101878.03
2023-01-24T04:41:25.123Z,101880.03
2023-01-24T04:44:27.132Z,101881.06
2023-01-24T04:47:29.128Z,101874.78
2023-01-24T04:50:30.991Z,101872.50
2023-01-24T04:53:34.902Z,101869.25
2023-01-24T04:56:36.843Z,101877.94
2023-01-24T04:59:38.834Z,101881.13
2023-01-24T05:02:40.712Z,101883.69
2023-01-24T05:05:42.787Z,101887.22
2023-01-24T05:08:44.689Z,101890.72
2023-01-24T05:11:46.820Z,101894.78
2023-01-24T05:14:48.885Z,101883.69
2023-01-24T05:17:50.827Z,101898.72
2023-01-24T05:20:52.851Z,101901.25
2023-01-24T05:23:54.866Z,101897.75
2023-01-24T05:26:56.778Z,101906.53
2023-01-24T05:29:58.761Z,101902.03
2023-01-24T05:33:00.702Z,101900.12
2023-01-24T05:36:06.984Z,101909.09
2023-01-24T05:39:08.876Z,101903.03
2023-01-24T05:42:11.192Z,101905.56
2023-01-24T05:45:13.081Z,101896.84
2023-01-24T05:48:15.049Z,101894.63
2023-01-24T05:51:18.031Z,101902.50
2023-01-24T05:54:20.110Z,101897.78
2023-01-24T05:57:22.223Z,101905.56
2023-01-24T06:00:24.366Z,101911.69
2023-01-24T06:03:26.531Z,101911.75
2023-01-24T06:06:28.494Z,101899.41
2023-01-24T06:09:30.416Z,101914.84
2023-01-24T06:12:33.176Z,101921.41
2023-01-24T06:15:35.172Z,101924.06
2023-01-24T06:18:37.112Z,101927.38
2023-01-24T06:21:45.731Z,101923.66
2023-01-24T06:24:47.817Z,101933.28
2023-01-24T06:27:49.878Z,101936.97
2023-01-24T06:30:54.043Z,101941.28
2023-01-24T06:34:14.787Z,101935.06
2023-01-24T06:37:24.734Z,101938.91
2023-01-24T06:40:26.954Z,101938.34
2023-01-24T06:43:29.073Z,101941.41
2023-01-24T06:46:31.369Z,101937.59
2023-01-24T06:49:33.376Z,101946.66
2023-01-24T06:52:35.774Z,101942.00
2023-01-24T06:55:38.189Z,101949.34
2023-01-24T06:58:40.290Z,101941.44
2023-01-24T07:01:42.208Z,101952.88
2023-01-24T07:04:44.439Z,101967.81
2023-01-24T07:07:46.437Z,101952.09
2023-01-24T07:10:48.379Z,101956.47
2023-01-24T07:13:52.600Z,101959.00
2023-01-24T07:16:56.685Z,101973.03
2023-01-24T07:19:59.145Z,101962.22
2023-01-24T07:23:01.297Z,101970.28
2023-01-24T07:26:04.627Z,101969.47
2023-01-24T07:29:09.255Z,101973.63
2023-01-24T07:32:14.019Z,101979.09
2023-01-24T07:35:16.188Z,101977.38
2023-01-24T07:38:18.162Z,101971.12
2023-01-24T07:41:20.050Z,101980.88
2023-01-24T07:44:22.065Z,101978.03
2023-01-24T07:47:24.788Z,101974.56
2023-01-24T07:50:27.125Z,101972.84
2023-01-24T07:53:29.340Z,101983.84
2023-01-24T07:56:33.994Z,101985.97
2023-01-24T07:59:38.981Z,101992.91
2023-01-24T08:02:41.942Z,102002.50
2023-01-24T08:05:45.276Z,101988.34
2023-01-24T08:08:47.278Z,101995.03
2023-01-24T08:11:49.379Z,102000.47
2023-01-24T08:14:51.470Z,102004.78
2023-01-24T08:17:53.692Z,102011.25
2023-01-24T08:20:58.831Z,102011.91
2023-01-24T08:24:01.133Z,102001.88
2023-01-24T08:27:04.155Z,102011.12
2023-01-24T08:30:06.848Z,102004.91
2023-01-24T08:33:09.628Z,102008.97
2023-01-24T08:36:11.497Z,102017.47
2023-01-24T08:39:21.193Z,102010.06
2023-01-24T08:42:30.680Z,102010.63
2023-01-24T08:45:32.941Z,102015.63
2023-01-24T08:48:34.869Z,102005.28
2023-01-24T08:51:36.785Z,102015.81
2023-01-24T08:54:40.260Z,102020.72
2023-01-24T08:57:42.252Z,102021.97
2023-01-24T09:00:44.256Z,102011.72
2023-01-24T09:03:46.502Z,102017.34
2023-01-24T09:06:50.889Z,102024.09
2023-01-24T09:09:52.739Z,102027.13
2023-01-24T09:12:54.705Z,102024.81
2023-01-24T09:15:58.220Z,102024.56
2023-01-24T09:19:00.342Z,102024.00
2023-01-24T09:22:04.743Z,102019.97
2023-01-24T09:25:09.024Z,102022.94
2023-01-24T09:28:11.049Z,102028.19
2023-01-24T09:31:14.193Z,102018.12
2023-01-24T09:34:16.186Z,102023.50
2023-01-24T09:37:19.277Z,102015.19
2023-01-24T09:40:25.506Z,102011.94
2023-01-24T09:43:27.567Z,102002.97
2023-01-24T09:46:31.514Z,102000.41
2023-01-24T09:49:43.729Z,102012.28
2023-01-24T09:52:47.309Z,102011.44
2023-01-24T09:55:49.374Z,102014.62
2023-01-24T09:58:51.338Z,102011.12
2023-01-24T10:01:53.523Z,101999.53
2023-01-24T10:04:55.625Z,102001.72
2023-01-24T10:08:07.601Z,101998.88
2023-01-24T10:11:15.689Z,101997.62
2023-01-24T10:14:36.199Z,102003.69
2023-01-24T10:17:38.271Z,101982.66
2023-01-24T10:20:46.361Z,101986.37
2023-01-24T10:23:49.363Z,101986.16
2023-01-24T10:26:52.083Z,101971.09
2023-01-24T10:29:56.552Z,101971.78
2023-01-24T10:33:00.249Z,101975.91
2023-01-24T10:36:02.509Z,101961.72
2023-01-24T10:39:05.059Z,101963.75
2023-01-24T10:42:17.885Z,101962.66
2023-01-24T10:45:39.038Z,101958.59
2023-01-24T10:48:43.051Z,101950.47
2023-01-24T10:51:45.864Z,101954.88
2023-01-24T10:54:58.228Z,101961.06
2023-01-24T10:58:00.226Z,101950.16
2023-01-24T11:01:06.669Z,101944.69
2023-01-24T11:04:28.812Z,101944.16
2023-01-24T11:07:34.705Z,101946.50
2023-01-24T11:10:37.417Z,101940.78
2023-01-24T11:13:41.627Z,101938.75
2023-01-24T11:16:44.892Z,101930.78
2023-01-24T11:19:46.989Z,101919.66
2023-01-24T11:22:51.920Z,101920.88
2023-01-24T11:25:54.838Z,101916.38
2023-01-24T11:29:00.927Z,101911.50
2023-01-24T11:32:06.099Z,101910.88
2023-01-24T11:35:14.381Z,101896.09
2023-01-24T11:38:27.195Z,101897.25
2023-01-24T11:41:29.295Z,101889.44
2023-01-24T11:44:37.130Z,101895.19
2023-01-24T11:47:40.737Z,101892.88
2023-01-24T11:51:11.836Z,101888.38
2023-01-24T11:54:14.562Z,101882.47
2023-01-24T11:57:21.376Z,101874.47
2023-01-24T12:00:27.219Z,101882.09
2023-01-24T12:04:04.576Z,101886.41
2023-01-24T12:07:21.709Z,101889.81
2023-01-24T12:10:26.253Z,101880.59
2023-01-24T12:13:44.751Z,101880.81
2023-01-24T12:17:15.091Z,101877.87
2023-01-24T12:20:40.126Z,101877.19
2023-01-24T12:24:01.508Z,101867.53
2023-01-24T12:27:05.836Z,101860.25
2023-01-24T12:30:16.711Z,101860.91
2023-01-24T12:33:38.297Z,101867.75
2023-01-24T12:36:46.022Z,101867.87
2023-01-24T12:39:52.352Z,101873.28
2023-01-24T12:42:59.229Z,101867.66
2023-01-24T12:46:01.203Z,101873.06
2023-01-24T12:49:14.538Z,101863.81
2023-01-24T12:52:23.838Z,101868.59
2023-01-24T12:55:33.829Z,101875.50
2023-01-24T12:58:36.989Z,101862.50
2023-01-24T13:01:45.730Z,101873.03
2023-01-24T13:04:56.712Z,101876.59
2023-01-24T13:08:12.164Z,101868.84
2023-01-24T13:11:21.631Z,101873.25
2023-01-24T13:14:35.127Z,101867.19
2023-01-24T13:17:57.984Z,101852.69
2023-01-24T13:21:02.936Z,101859.84
2023-01-24T13:24:08.005Z,101864.78
2023-01-24T13:27:31.681Z,101868.31
2023-01-24T13:30:50.808Z,101874.16
2023-01-24T13:33:53.794Z,101881.84
2023-01-24T13:36:57.857Z,101871.97
2023-01-24T13:40:07.269Z,101865.97
2023-01-24T13:43:30.340Z,101866.59
2023-01-24T13:46:44.562Z,101867.09
2023-01-24T13:49:49.583Z,101865.13
2023-01-24T13:52:52.615Z,101868.78
2023-01-24T13:56:01.246Z,101872.06
2023-01-24T13:59:03.188Z,101875.97
2023-01-24T14:02:24.207Z,101878.19
2023-01-24T14:05:26.535Z,101879.81
2023-01-24T14:08:28.413Z,101877.53
2023-01-24T14:11:36.264Z,101871.19
2023-01-24T14:14:58.375Z,101864.37
2023-01-24T14:18:00.326Z,101869.56
2023-01-24T14:21:02.303Z,101876.00
2023-01-24T14:24:20.224Z,101875.19
2023-01-24T14:27:26.310Z,101875.69
2023-01-24T14:30:33.148Z,101878.81
2023-01-24T14:33:38.154Z,101875.44
2023-01-24T14:36:40.155Z,101873.19
2023-01-24T14:39:42.309Z,101876.00
2023-01-24T14:42:44.248Z,101871.16
2023-01-24T14:45:46.996Z,101875.25
2023-01-24T14:48:48.946Z,101871.91
2023-01-24T14:51:50.970Z,101872.47
2023-01-24T14:54:52.866Z,101877.66
2023-01-24T14:57:55.100Z,101881.50
2023-01-24T15:00:58.296Z,101882.41
2023-01-24T15:04:00.722Z,101883.59
2023-01-24T15:07:09.051Z,101883.12
2023-01-24T15:10:14.893Z,101888.72
2023-01-24T15:13:40.277Z,101893.34
2023-01-24T15:16:54.708Z,101887.78
2023-01-24T15:20:01.192Z,101898.00
2023-01-24T15:23:10.816Z,101894.13
2023-01-24T15:26:26.180Z,101895.44
2023-01-24T15:29:44.801Z,101905.50
2023-01-24T15:32:49.466Z,101909.91
2023-01-24T15:35:51.962Z,101915.78
2023-01-24T15:38:57.863Z,101905.69
2023-01-24T15:42:18.659Z,101911.37
2023-01-24T15:45:20.605Z,101909.56
2023-01-24T15:48:23.711Z,101918.53
2023-01-24T15:51:30.365Z,101919.03
2023-01-24T15:54:32.613Z,101925.69
2023-01-24T15:57:35.475Z,101923.56
2023-01-24T16:00:41.237Z,101929.09
2023-01-24T16:03:43.355Z,101926.44
2023-01-24T16:06:45.465Z,101925.44
2023-01-24T16:09:49.365Z,101935.56
2023-01-24T16:12:51.863Z,101947.91
2023-01-24T16:15:54.330Z,101939.44
2023-01-24T16:18:59.025Z,101952.19
2023-01-24T16:22:00.918Z,101949.81
2023-01-24T16:25:03.102Z,101952.31
2023-01-24T16:28:05.370Z,101947.22
2023-01-24T16:31:07.888Z,101941.63
2023-01-24T16:34:09.945Z,101946.81
2023-01-24T16:37:12.060Z,101943.66
2023-01-24T16:40:15.083Z,101930.41
2023-01-24T16:43:18.824Z,101940.97
2023-01-24T16:46:21.581Z,101942.84
2023-01-24T16:49:23.637Z,101943.59
2023-01-24T16:52:26.163Z,101947.09
2023-01-24T16:55:29.805Z,101946.34
2023-01-24T16:58:32.673Z,101959.69
2023-01-24T17:01:34.589Z,101948.16
2023-01-24T17:04:36.755Z,101955.06
2023-01-24T17:07:38.844Z,101956.94
2023-01-24T17:10:41.686Z,101956.81
2023-01-24T17:13:43.900Z,101954.09
2023-01-24T17:16:45.773Z,101951.22
2023-01-24T17:19:47.624Z,101952.44
2023-01-24T17:22:49.805Z,101966.47
2023-01-24T17:25:51.777Z,101959.63
2023-01-24T17:28:53.848Z,101966.03
2023-01-24T17:31:56.393Z,101961.22
2023-01-24T17:34:58.431Z,101962.16
2023-01-24T17:38:00.397Z,101951.16
2023-01-24T17:41:02.443Z,101960.44
2023-01-24T17:44:04.568Z,101964.78
2023-01-24T17:47:06.411Z,101958.75
2023-01-24T17:50:08.597Z,101952.16
2023-01-24T17:53:10.749Z,101966.78
2023-01-24T17:56:14.036Z,101967.50
2023-01-24T17:59:16.015Z,101961.91
2023-01-24T18:02:18.010Z,101968.00
2023-01-24T18:05:20.146Z,101986.22
2023-01-24T18:08:23.949Z,101969.09
2023-01-24T18:11:26.083Z,101970.25
2023-01-24T18:14:28.195Z,101970.47
2023-01-24T18:17:30.090Z,101962.72
2023-01-24T18:20:32.023Z,101970.38
2023-01-24T18:23:33.916Z,101970.31
2023-01-24T18:26:38.302Z,101978.06
2023-01-24T18:29:40.338Z,101976.28
2023-01-24T18:32:42.619Z,101972.47
2023-01-24T18:35:44.662Z,101967.47
2023-01-24T18:38:46.840Z,101972.47
2023-01-24T18:41:48.695Z,101972.47
2023-01-24T18:44:50.609Z,101970.62
2023-01-24T18:47:52.780Z,101966.50
2023-01-24T18:50:54.618Z,101971.59
2023-01-24T18:53:56.646Z,101971.00
2023-01-24T18:56:58.526Z,101978.09
2023-01-24T19:00:00.515Z,101980.75
2023-01-24T19:03:02.511Z,101984.28
2023-01-24T19:06:04.564Z,101980.75
2023-01-24T19:09:07.378Z,101983.34
2023-01-24T19:12:10.622Z,101978.00
2023-01-24T19:15:13.092Z,101975.44
2023-01-24T19:18:15.209Z,101978.87
2023-01-24T19:21:18.093Z,101977.81
2023-01-24T19:24:20.304Z,101979.78
2023-01-24T19:27:22.306Z,101981.66
2023-01-24T19:30:24.314Z,101975.25
2023-01-24T19:33:26.214Z,101984.16
2023-01-24T19:36:28.357Z,101989.53
2023-01-24T19:39:30.401Z,101994.84
2023-01-24T19:42:32.378Z,101980.03
2023-01-24T19:45:34.296Z,101990.47
2023-01-24T19:48:36.310Z,101976.47
2023-01-24T19:51:38.305Z,101982.56
2023-01-24T19:54:40.189Z,101993.13
2023-01-24T19:57:42.137Z,101986.88
2023-01-24T20:00:44.446Z,101996.53
2023-01-24T20:03:46.498Z,101990.47
2023-01-24T20:06:48.537Z,101993.84
2023-01-24T20:09:51.278Z,101990.25
2023-01-24T20:12:53.540Z,101985.91
2023-01-24T20:15:55.591Z,102002.72
2023-01-24T20:19:01.293Z,102006.16
2023-01-24T20:22:03.246Z,102011.41
2023-01-24T20:25:17.697Z,102007.06
2023-01-24T20:28:20.960Z,102005.31
2023-01-24T20:31:25.060Z,102007.06
2023-01-24T20:34:29.731Z,102010.56
2023-01-24T20:37:31.606Z,102012.28
2023-01-24T20:40:33.568Z,102014.91
2023-01-24T20:43:36.249Z,102007.84
2023-01-24T20:46:38.282Z,102014.91
2023-01-24T20:49:40.395Z,102005.25
2023-01-24T20:52:42.265Z,102015.78
2023-01-24T20:55:46.787Z,102018.34
2023-01-24T20:58:50.639Z,102020.94
2023-01-24T21:01:52.600Z,102023.25
2023-01-24T21:04:54.602Z,102023.53
2023-01-24T21:07:56.484Z,102022.53
2023-01-24T21:10:58.527Z,102027.09
2023-01-24T21:14:01.493Z,102023.50
2023-01-24T21:17:03.390Z,102030.06
2023-01-24T21:20:05.518Z,102031.13
2023-01-24T21:23:09.392Z,102024.41
2023-01-24T21:26:12.499Z,102018.34
2023-01-24T21:29:14.960Z,102028.00
2023-01-24T21:32:16.897Z,102030.59
2023-01-24T21:35:18.866Z,102034.84
2023-01-24T21:38:20.764Z,102035.59
2023-01-24T21:41:41.803Z,102034.81
2023-01-24T21:44:43.690Z,102028.69
2023-01-24T21:47:48.593Z,102020.13
2023-01-24T21:50:50.493Z,102021.88
2023-01-24T21:54:06.617Z,102025.38
2023-01-24T21:57:32.816Z,102022.75
2023-01-24T22:00:35.434Z,102020.75
2023-01-24T22:03:37.323Z,102009.53
2023-01-24T22:06:39.250Z,102016.56
2023-01-24T22:09:41.717Z,102015.78
2023-01-24T22:12:43.603Z,102017.38
2023-01-24T22:15:45.761Z,102014.66
2023-01-24T22:18:47.974Z,102015.69
2023-01-24T22:21:50.129Z,102014.88
2023-01-24T22:25:01.420Z,102016.50
2023-01-24T22:28:03.421Z,102016.47
2023-01-24T22:31:05.724Z,102018.12
2023-01-24T22:34:09.621Z,102012.03
2023-01-24T22:37:25.339Z,102015.44
2023-01-24T22:40:27.409Z,102012.84
2023-01-24T22:43:29.323Z,102009.34
2023-01-24T22:46:31.254Z,102017.00
2023-01-24T22:49:36.139Z,102014.56
2023-01-24T22:52:38.034Z,102030.16
2023-01-24T22:55:40.478Z,102026.81
2023-01-24T22:58:44.217Z,102025.03
2023-01-24T23:01:46.085Z,102023.41
2023-01-24T23:04:48.215Z,102023.59
2023-01-24T23:07:50.272Z,102029.72
2023-01-24T23:10:52.194Z,102024.47
2023-01-24T23:14:13.094Z,102023.50
2023-01-24T23:17:15.527Z,102032.06
2023-01-24T23:20:35.950Z,102034.78
2023-01-24T23:23:37.908Z,102025.12
2023-01-24T23:26:40.410Z,102029.47
2023-01-24T23:29:42.346Z,102033.63
2023-01-24T23:32:47.328Z,102035.56
2023-01-24T23:35:49.165Z,102034.00
2023-01-24T23:38:51.030Z,102032.50
2023-01-24T23:41:52.847Z,102038.53
2023-01-24T23:44:57.501Z,102035.72
2023-01-24T23:48:00.447Z,102023.72
2023-01-24T23:51:02.383Z,102028.03
2023-01-24T23:54:04.479Z,102029.00
2023-01-24T23:57:06.451Z,102031.09
